createdAt,value
2023-04-26T00:02:07.685Z,91.03
2023-04-26T00:04:35.937Z,91.15
2023-04-26T00:07:04.075Z,90.72
2023-04-26T00:09:32.286Z,90.60
2023-04-26T00:12:00.298Z,90.47
2023-04-26T00:14:28.008Z,90.87
2023-04-26T00:16:56.454Z,90.74
2023-04-26T00:19:24.973Z,90.60
2023-04-26T00:21:52.697Z,90.58
2023-04-26T00:24:21.082Z,90.47
2023-04-26T00:26:48.899Z,90.60
2023-04-26T00:29:16.625Z,90.89
2023-04-26T00:31:44.463Z,90.94
2023-04-26T00:34:12.401Z,90.71
2023-04-26T00:36:40.225Z,90.65
2023-04-26T00:39:09.271Z,91.06
2023-04-26T00:41:37.036Z,90.73
2023-04-26T00:44:05.030Z,90.66
2023-04-26T00:46:32.884Z,90.72
2023-04-26T00:49:00.640Z,90.86
2023-04-26T00:51:28.582Z,91.17
2023-04-26T00:53:56.888Z,90.94
2023-04-26T00:56:25.497Z,90.62
2023-04-26T00:58:53.510Z,90.74
2023-04-26T01:01:22.714Z,91.08
2023-04-26T01:03:50.637Z,90.91
2023-04-26T01:06:18.591Z,91.05
2023-04-26T01:08:47.207Z,90.95
2023-04-26T01:11:15.193Z,91.01
2023-04-26T01:13:43.534Z,90.59
2023-04-26T01:16:12.233Z,90.81
2023-04-26T01:18:41.695Z,90.76
2023-04-26T01:21:11.491Z,91.19
2023-04-26T01:23:39.307Z,90.81
2023-04-26T01:26:07.024Z,90.92
2023-04-26T01:28:34.724Z,90.38
2023-04-26T01:31:05.168Z,90.75
2023-04-26T01:33:32.978Z,90.84
2023-04-26T01:36:00.769Z,91.32
2023-04-26T01:38:30.054Z,91.30
2023-04-26T01:40:57.864Z,91.91
2023-04-26T01:43:25.637Z,91.39
2023-04-26T01:45:53.463Z,91.03
2023-04-26T01:48:40.972Z,91.09
2023-04-26T01:51:08.711Z,91.17
2023-04-26T01:53:36.735Z,90.79
2023-04-26T01:56:05.985Z,90.92
2023-04-26T01:58:33.746Z,91.44
2023-04-26T02:01:07.116Z,91.72
2023-04-26T02:03:35.802Z,91.53
2023-04-26T02:06:04.241Z,92.16
2023-04-26T02:08:32.043Z,91.83
2023-04-26T02:10:59.912Z,91.57
2023-04-26T02:13:27.610Z,91.23
2023-04-26T02:15:55.867Z,91.04
2023-04-26T02:18:23.758Z,91.26
2023-04-26T02:20:51.702Z,91.76
2023-04-26T02:23:20.237Z,91.37
2023-04-26T02:25:49.091Z,91.02
2023-04-26T02:28:19.227Z,90.72
2023-04-26T02:30:46.961Z,90.74
2023-04-26T02:33:14.690Z,91.06
2023-04-26T02:35:42.736Z,90.85
2023-04-26T02:38:11.722Z,90.68
2023-04-26T02:40:39.525Z,90.89
2023-04-26T02:43:08.093Z,91.05
2023-04-26T02:45:42.029Z,90.87
2023-04-26T02:48:11.348Z,90.97
2023-04-26T02:50:39.361Z,90.55
2023-04-26T02:53:07.254Z,90.80
2023-04-26T02:55:34.996Z,90.80
2023-04-26T02:58:02.865Z,90.47
2023-04-26T03:00:30.834Z,90.35
2023-04-26T03:02:58.735Z,90.32
2023-04-26T03:05:26.514Z,90.33
2023-04-26T03:07:54.355Z,90.30
2023-04-26T03:10:22.063Z,90.24
2023-04-26T03:12:50.347Z,90.23
2023-04-26T03:15:18.420Z,89.98
2023-04-26T03:17:46.582Z,90.07
2023-04-26T03:20:15.416Z,90.13
2023-04-26T03:22:43.747Z,90.01
2023-04-26T03:25:11.805Z,89.76
2023-04-26T03:27:39.548Z,89.76
2023-04-26T03:30:08.369Z,89.67
2023-04-26T03:32:36.932Z,89.80
2023-04-26T03:35:05.477Z,89.71
2023-04-26T03:37:33.301Z,89.64
2023-04-26T03:40:08.432Z,89.47
2023-04-26T03:42:36.991Z,89.34
2023-04-26T03:45:05.571Z,89.32
2023-04-26T03:47:33.594Z,89.37
2023-04-26T03:50:01.658Z,89.14
2023-04-26T03:52:29.370Z,89.28
2023-04-26T03:54:57.623Z,88.97
2023-04-26T03:57:25.716Z,89.20
2023-04-26T03:59:53.723Z,88.93
2023-04-26T04:02:21.928Z,88.87
2023-04-26T04:04:50.246Z,88.42
2023-04-26T04:07:19.121Z,88.46
2023-04-26T04:09:46.984Z,88.52
2023-04-26T04:12:15.356Z,88.54
2023-04-26T04:14:44.087Z,88.68
2023-04-26T04:17:12.100Z,88.69
2023-04-26T04:19:40.220Z,88.31
2023-04-26T04:22:08.357Z,88.31
2023-04-26T04:24:37.466Z,88.23
2023-04-26T04:27:05.251Z,88.65
2023-04-26T04:29:33.780Z,88.32
2023-04-26T04:32:02.162Z,88.60
2023-04-26T04:34:30.288Z,88.28
2023-04-26T04:36:58.146Z,87.84
2023-04-26T04:39:26.068Z,87.83
2023-04-26T04:41:54.475Z,88.01
2023-04-26T04:44:24.084Z,88.27
2023-04-26T04:46:53.330Z,87.93
2023-04-26T04:49:21.359Z,87.51
2023-04-26T04:51:49.412Z,87.51
2023-04-26T04:54:18.643Z,87.40
2023-04-26T04:56:48.504Z,87.29
2023-04-26T04:59:17.269Z,87.24
2023-04-26T05:01:45.329Z,86.58
2023-04-26T05:04:15.706Z,87.33
2023-04-26T05:06:44.535Z,86.72
2023-04-26T05:09:13.233Z,86.59
2023-04-26T05:11:41.807Z,86.45
2023-04-26T05:14:11.415Z,86.09
2023-04-26T05:16:39.272Z,85.78
2023-04-26T05:19:09.385Z,85.79
2023-04-26T05:21:37.934Z,85.96
2023-04-26T05:24:07.126Z,85.84
2023-04-26T05:26:36.781Z,84.72
2023-04-26T05:29:31.144Z,84.70
2023-04-26T05:31:59.027Z,84.89
2023-04-26T05:34:53.012Z,84.56
2023-04-26T05:37:21.246Z,84.33
2023-04-26T05:39:49.454Z,83.76
2023-04-26T05:42:18.281Z,83.70
2023-04-26T05:44:46.455Z,82.76
2023-04-26T05:47:14.473Z,83.33
2023-04-26T05:49:42.515Z,83.32
2023-04-26T05:52:10.275Z,82.76
2023-04-26T05:54:38.095Z,82.61
2023-04-26T05:57:06.156Z,82.01
2023-04-26T05:59:37.251Z,82.39
2023-04-26T06:02:05.484Z,81.34
2023-04-26T06:04:33.556Z,81.48
2023-04-26T06:07:05.416Z,82.13
2023-04-26T06:09:33.365Z,81.81
2023-04-26T06:12:01.785Z,80.63
2023-04-26T06:14:30.984Z,80.26
2023-04-26T06:17:02.303Z,79.07
2023-04-26T06:19:30.204Z,79.60
2023-04-26T06:21:57.964Z,79.30
2023-04-26T06:24:26.102Z,79.53
2023-04-26T06:26:53.975Z,78.58
2023-04-26T06:29:21.953Z,77.70
2023-04-26T06:31:49.880Z,78.34
2023-04-26T06:37:47.253Z,76.41
2023-04-26T06:40:15.984Z,76.14
2023-04-26T06:42:44.052Z,76.44
2023-04-26T06:45:24.373Z,74.55
2023-04-26T06:47:53.342Z,74.66
2023-04-26T06:50:24.268Z,75.18
2023-04-26T06:52:52.165Z,75.10
2023-04-26T06:55:20.713Z,73.45
2023-04-26T06:57:50.620Z,73.46
2023-04-26T07:00:19.030Z,71.79
2023-04-26T07:02:46.900Z,72.20
2023-04-26T07:05:15.532Z,71.20
2023-04-26T07:07:43.483Z,70.10
2023-04-26T07:10:11.252Z,71.13
2023-04-26T07:12:39.060Z,72.03
2023-04-26T07:15:07.615Z,71.48
2023-04-26T07:17:35.352Z,71.85
2023-04-26T07:20:04.154Z,71.05
2023-04-26T07:22:31.953Z,70.97
2023-04-26T07:24:59.670Z,69.94
2023-04-26T07:27:27.440Z,70.45
2023-04-26T07:29:56.360Z,68.32
2023-04-26T07:32:24.269Z,68.81
2023-04-26T07:34:52.037Z,69.36
2023-04-26T07:37:19.767Z,69.65
2023-04-26T07:39:47.684Z,69.67
2023-04-26T07:42:15.523Z,67.83
2023-04-26T07:44:43.264Z,66.84
2023-04-26T07:47:14.506Z,67.02
2023-04-26T07:49:42.791Z,67.93
2023-04-26T07:52:10.557Z,68.28
2023-04-26T07:54:40.047Z,67.65
2023-04-26T07:57:07.678Z,66.88
2023-04-26T07:59:35.406Z,66.07
2023-04-26T08:02:03.285Z,65.17
2023-04-26T08:04:34.518Z,65.21
2023-04-26T08:07:02.751Z,64.74
2023-04-26T08:09:30.850Z,65.44
2023-04-26T08:11:58.943Z,65.23
2023-04-26T08:14:27.209Z,65.74
2023-04-26T08:16:54.943Z,64.68
2023-04-26T08:19:23.186Z,63.59
2023-04-26T08:21:51.043Z,64.91
2023-04-26T08:24:18.804Z,65.49
2023-04-26T08:26:46.613Z,66.45
2023-04-26T08:29:15.031Z,65.90
2023-04-26T08:31:42.857Z,64.92
2023-04-26T08:34:11.680Z,65.05
2023-04-26T08:36:42.856Z,65.33
2023-04-26T08:39:12.285Z,65.37
2023-04-26T08:41:43.605Z,65.23
2023-04-26T08:44:11.838Z,64.42
2023-04-26T08:46:48.069Z,62.12
2023-04-26T08:49:36.090Z,60.75
2023-04-26T08:52:04.837Z,62.13
2023-04-26T08:54:32.962Z,62.32
2023-04-26T08:57:01.941Z,61.21
2023-04-26T08:59:31.306Z,60.69
2023-04-26T09:02:01.375Z,58.42
2023-04-26T09:04:29.461Z,58.05
2023-04-26T09:07:01.893Z,58.77
2023-04-26T09:09:38.062Z,59.43
2023-04-26T09:12:06.176Z,58.24
2023-04-26T09:14:34.456Z,56.53
2023-04-26T09:17:02.286Z,55.97
2023-04-26T09:19:42.716Z,56.62
2023-04-26T09:22:11.013Z,57.45
2023-04-26T09:24:50.363Z,55.93
2023-04-26T09:27:19.176Z,55.15
2023-04-26T09:30:10.647Z,56.52
2023-04-26T09:32:44.629Z,55.40
2023-04-26T09:35:39.894Z,54.67
2023-04-26T09:38:13.514Z,55.64
2023-04-26T09:40:46.897Z,54.61
2023-04-26T09:43:16.733Z,54.04
2023-04-26T09:45:50.182Z,54.65
2023-04-26T09:48:23.355Z,51.65
2023-04-26T09:50:53.245Z,50.65
2023-04-26T09:53:27.720Z,51.09
2023-04-26T09:55:56.573Z,50.22
2023-04-26T09:58:24.525Z,50.51
2023-04-26T10:00:53.177Z,49.74
2023-04-26T10:03:21.316Z,48.84
2023-04-26T10:05:49.424Z,49.31
2023-04-26T10:08:17.252Z,46.68
2023-04-26T10:10:47.852Z,45.36
2023-04-26T10:13:16.886Z,44.73
2023-04-26T10:15:45.132Z,43.80
2023-04-26T10:18:13.146Z,45.81
2023-04-26T10:20:44.946Z,45.59
2023-04-26T10:23:25.494Z,46.27
2023-04-26T10:25:55.584Z,45.57
2023-04-26T10:28:50.844Z,46.94
2023-04-26T10:31:21.353Z,44.18
2023-04-26T10:34:18.960Z,44.65
2023-04-26T10:37:17.245Z,45.17
2023-04-26T10:39:46.885Z,44.80
2023-04-26T10:42:24.084Z,46.42
2023-04-26T10:44:56.611Z,46.71
2023-04-26T10:47:37.418Z,45.17
2023-04-26T10:50:09.870Z,45.56
2023-04-26T10:53:05.591Z,46.25
2023-04-26T10:55:42.978Z,46.37
2023-04-26T10:58:31.626Z,45.99
2023-04-26T11:01:08.515Z,46.28
2023-04-26T11:03:37.189Z,45.33
2023-04-26T11:06:09.899Z,46.62
2023-04-26T11:08:37.748Z,46.65
2023-04-26T11:11:13.512Z,46.79
2023-04-26T11:13:43.119Z,47.34
2023-04-26T11:16:13.691Z,48.03
2023-04-26T11:18:44.515Z,47.06
2023-04-26T11:21:17.567Z,47.76
2023-04-26T11:23:55.307Z,47.89
2023-04-26T11:26:24.743Z,47.90
2023-04-26T11:28:52.659Z,48.86
2023-04-26T11:31:21.299Z,46.35
2023-04-26T11:39:22.707Z,43.69
2023-04-26T11:41:50.725Z,43.25
2023-04-26T11:44:21.169Z,44.05
2023-04-26T11:46:49.332Z,42.28
2023-04-26T11:49:17.645Z,43.30
2023-04-26T11:51:49.753Z,43.28
2023-04-26T11:54:37.851Z,43.01
2023-04-26T11:57:17.229Z,44.25
2023-04-26T11:59:46.287Z,43.88
2023-04-26T12:02:14.357Z,42.63
2023-04-26T12:04:44.214Z,43.42
2023-04-26T12:07:12.143Z,44.11
2023-04-26T12:09:44.645Z,45.16
2023-04-26T12:12:12.546Z,45.55
2023-04-26T12:14:40.869Z,46.71
2023-04-26T12:17:10.362Z,47.17
2023-04-26T12:19:39.022Z,47.98
2023-04-26T12:22:08.468Z,48.24
2023-04-26T12:24:37.505Z,49.18
2023-04-26T12:27:07.306Z,47.84
2023-04-26T12:29:35.678Z,48.83
2023-04-26T12:32:04.381Z,49.15
2023-04-26T12:34:33.043Z,48.89
2023-04-26T12:37:01.117Z,48.94
2023-04-26T12:39:28.924Z,48.32
2023-04-26T12:41:57.045Z,48.25
2023-04-26T12:44:25.074Z,48.19
2023-04-26T12:46:52.839Z,47.87
2023-04-26T12:49:20.615Z,48.89
2023-04-26T12:51:48.328Z,48.17
2023-04-26T12:54:16.285Z,48.99
2023-04-26T12:56:45.027Z,49.86
2023-04-26T12:59:12.912Z,49.59
2023-04-26T13:01:41.276Z,50.46
2023-04-26T13:04:10.208Z,50.04
2023-04-26T13:06:38.229Z,50.51
2023-04-26T13:09:08.273Z,49.62
2023-04-26T13:11:36.310Z,49.08
2023-04-26T13:14:04.443Z,47.50
2023-04-26T13:16:33.469Z,48.64
2023-04-26T13:19:01.443Z,47.08
2023-04-26T13:21:29.446Z,46.39
2023-04-26T13:23:57.291Z,45.70
2023-04-26T13:26:27.097Z,45.34
2023-04-26T13:28:55.933Z,44.88
2023-04-26T13:31:23.877Z,44.39
2023-04-26T13:33:51.743Z,44.44
2023-04-26T13:36:19.611Z,45.37
2023-04-26T13:38:47.640Z,45.53
2023-04-26T13:41:15.505Z,46.97
2023-04-26T13:43:43.312Z,46.40
2023-04-26T13:46:11.260Z,45.80
2023-04-26T13:48:39.102Z,46.43
2023-04-26T13:51:07.252Z,45.15
2023-04-26T13:53:35.094Z,44.98
2023-04-26T13:56:02.975Z,45.18
2023-04-26T13:58:30.717Z,45.19
2023-04-26T14:00:58.465Z,45.33
2023-04-26T14:03:27.134Z,46.09
2023-04-26T14:05:56.643Z,45.60
2023-04-26T14:08:24.512Z,45.10
2023-04-26T14:10:53.027Z,45.61
2023-04-26T14:13:21.555Z,45.71
2023-04-26T14:15:49.558Z,45.18
2023-04-26T14:18:17.780Z,45.48
2023-04-26T14:20:46.757Z,46.10
2023-04-26T14:23:14.546Z,47.21
2023-04-26T14:25:42.533Z,47.96
2023-04-26T14:28:10.488Z,48.80
2023-04-26T14:30:38.464Z,49.34
2023-04-26T14:33:06.247Z,49.46
2023-04-26T14:35:34.018Z,49.25
2023-04-26T14:38:01.784Z,48.81
2023-04-26T14:40:30.219Z,49.90
2023-04-26T14:42:58.012Z,49.28
2023-04-26T14:45:37.024Z,49.99
2023-04-26T14:48:12.504Z,49.67
2023-04-26T14:50:40.707Z,49.96
2023-04-26T14:53:09.758Z,50.07
2023-04-26T14:55:37.733Z,50.07
2023-04-26T14:58:05.779Z,50.46
2023-04-26T15:00:33.840Z,49.91
2023-04-26T15:03:01.971Z,49.45
2023-04-26T15:05:29.890Z,49.83
2023-04-26T15:07:57.800Z,49.63
2023-04-26T15:10:25.779Z,50.59
2023-04-26T15:12:53.625Z,50.54
2023-04-26T15:15:21.572Z,51.06
2023-04-26T15:17:49.482Z,51.47
2023-04-26T15:20:18.751Z,51.19
2023-04-26T15:22:46.709Z,50.54
2023-04-26T15:25:14.545Z,51.28
2023-04-26T15:27:42.519Z,50.63
2023-04-26T15:30:10.938Z,50.09
2023-04-26T15:32:38.845Z,50.64
2023-04-26T15:35:07.953Z,50.80
2023-04-26T15:37:36.823Z,50.99
2023-04-26T15:40:06.218Z,51.19
2023-04-26T15:42:33.929Z,51.94
2023-04-26T15:45:02.507Z,52.32
2023-04-26T15:47:30.463Z,52.61
2023-04-26T15:50:03.720Z,52.37
2023-04-26T15:52:38.543Z,51.79
2023-04-26T15:55:08.619Z,52.39
2023-04-26T15:57:36.773Z,52.49
2023-04-26T16:00:09.082Z,52.20
2023-04-26T16:02:37.117Z,52.36
2023-04-26T16:05:07.236Z,52.97
2023-04-26T16:07:35.357Z,52.58
2023-04-26T16:10:03.902Z,52.62
2023-04-26T16:12:31.965Z,52.67
2023-04-26T16:14:59.761Z,53.15
2023-04-26T16:17:27.584Z,53.48
2023-04-26T16:19:55.894Z,52.95
2023-04-26T16:22:23.729Z,52.98
2023-04-26T16:24:51.543Z,53.03
2023-04-26T16:27:22.592Z,53.16
2023-04-26T16:29:50.365Z,54.03
2023-04-26T16:32:18.214Z,54.02
2023-04-26T16:34:46.085Z,54.41
2023-04-26T16:37:14.833Z,54.04
2023-04-26T16:39:42.632Z,53.62
2023-04-26T16:42:10.620Z,54.33
2023-04-26T16:44:38.461Z,54.86
2023-04-26T16:47:06.807Z,54.17
2023-04-26T16:49:34.812Z,54.32
2023-04-26T16:52:02.578Z,54.28
2023-04-26T16:54:30.352Z,54.38
2023-04-26T16:56:58.366Z,54.53
2023-04-26T16:59:26.234Z,54.55
2023-04-26T17:01:54.614Z,54.96
2023-04-26T17:04:22.633Z,55.55
2023-04-26T17:06:50.859Z,55.44
2023-04-26T17:09:18.748Z,55.04
2023-04-26T17:11:46.936Z,55.15
2023-04-26T17:14:15.601Z,55.15
2023-04-26T17:16:43.524Z,55.99
2023-04-26T17:19:11.695Z,55.52
2023-04-26T17:21:39.455Z,56.20
2023-04-26T17:24:08.865Z,55.64
2023-04-26T17:26:36.962Z,56.08
2023-04-26T17:29:04.928Z,56.15
2023-04-26T17:31:32.942Z,56.60
2023-04-26T17:34:03.296Z,56.50
2023-04-26T17:36:32.475Z,57.59
2023-04-26T17:39:00.646Z,56.80
2023-04-26T17:41:28.480Z,56.85
2023-04-26T17:43:56.294Z,57.01
2023-04-26T17:46:24.132Z,56.85
2023-04-26T17:48:52.206Z,57.35
2023-04-26T17:51:20.022Z,57.76
2023-04-26T17:53:47.795Z,57.44
2023-04-26T17:56:15.573Z,57.17
2023-04-26T17:58:43.496Z,57.55
2023-04-26T18:01:11.525Z,57.87
2023-04-26T18:03:39.663Z,57.47
2023-04-26T18:06:07.624Z,58.19
2023-04-26T18:08:35.492Z,58.69
2023-04-26T18:11:03.265Z,58.96
2023-04-26T18:13:31.599Z,59.10
2023-04-26T18:15:59.432Z,58.70
2023-04-26T18:18:29.637Z,59.19
2023-04-26T18:20:57.800Z,59.19
2023-04-26T18:23:25.785Z,59.01
2023-04-26T18:25:53.539Z,59.59
2023-04-26T18:28:22.077Z,60.10
2023-04-26T18:30:49.841Z,60.67
2023-04-26T18:33:17.844Z,60.13
2023-04-26T18:35:49.069Z,60.25
2023-04-26T18:38:17.719Z,60.54
2023-04-26T18:40:49.786Z,60.73
2023-04-26T18:43:17.937Z,60.80
2023-04-26T18:45:45.964Z,60.76
2023-04-26T18:48:13.782Z,60.99
2023-04-26T18:50:48.983Z,61.37
2023-04-26T18:53:17.556Z,62.00
2023-04-26T18:55:45.415Z,62.51
2023-04-26T18:58:13.390Z,62.78
2023-04-26T19:00:41.230Z,63.14
2023-04-26T19:03:09.194Z,62.90
2023-04-26T19:05:41.301Z,63.46
2023-04-26T19:08:09.682Z,63.28
2023-04-26T19:10:37.791Z,63.19
2023-04-26T19:13:05.850Z,62.99
2023-04-26T19:15:33.553Z,64.22
2023-04-26T19:18:01.581Z,63.84
2023-04-26T19:20:29.544Z,64.17
2023-04-26T19:22:57.297Z,63.91
2023-04-26T19:25:26.758Z,63.69
2023-04-26T19:27:54.586Z,65.75
2023-04-26T19:30:22.352Z,64.90
2023-04-26T19:32:51.070Z,65.53
2023-04-26T19:35:19.059Z,65.05
2023-04-26T19:37:46.892Z,65.95
2023-04-26T19:40:14.968Z,65.76
2023-04-26T19:42:42.753Z,66.09
2023-04-26T19:45:11.016Z,65.55
2023-04-26T19:47:41.736Z,65.89
2023-04-26T19:50:10.186Z,65.81
2023-04-26T19:52:37.917Z,67.27
2023-04-26T19:55:05.852Z,67.00
2023-04-26T19:57:33.814Z,66.83
2023-04-26T20:00:01.761Z,66.60
2023-04-26T20:02:35.051Z,66.43
2023-04-26T20:05:03.369Z,66.84
2023-04-26T20:07:31.802Z,66.90
2023-04-26T20:09:59.847Z,67.26
2023-04-26T20:12:27.630Z,67.55
2023-04-26T20:14:55.439Z,67.19
2023-04-26T20:17:23.289Z,67.11
2023-04-26T20:19:51.728Z,67.66
2023-04-26T20:22:19.457Z,68.47
2023-04-26T20:24:47.383Z,68.14
2023-04-26T20:27:15.120Z,67.93
2023-04-26T20:29:42.863Z,67.11
2023-04-26T20:32:10.658Z,68.01
2023-04-26T20:34:38.672Z,67.98
2023-04-26T20:37:06.456Z,68.45
2023-04-26T20:39:34.194Z,68.61
2023-04-26T20:42:02.357Z,68.49
2023-04-26T20:44:30.115Z,68.03
2023-04-26T20:46:57.970Z,68.67
2023-04-26T20:49:25.757Z,68.90
2023-04-26T20:51:54.620Z,69.29
2023-04-26T20:54:22.425Z,69.73
2023-04-26T20:56:50.237Z,69.75
2023-04-26T20:59:18.034Z,69.53
2023-04-26T21:01:46.043Z,69.83
2023-04-26T21:04:14.000Z,69.96
2023-04-26T21:06:41.842Z,69.68
2023-04-26T21:09:09.828Z,69.77
2023-04-26T21:11:37.780Z,69.78
2023-04-26T21:14:06.850Z,69.80
2023-04-26T21:16:35.597Z,70.17
2023-04-26T21:19:03.567Z,70.78
2023-04-26T21:21:32.556Z,70.29
2023-04-26T21:24:00.951Z,70.87
2023-04-26T21:26:28.777Z,70.35
2023-04-26T21:28:56.576Z,69.67
2023-04-26T21:31:24.414Z,71.08
2023-04-26T21:33:53.360Z,71.05
2023-04-26T21:39:06.713Z,71.61
2023-04-26T21:41:34.525Z,70.99
2023-04-26T21:44:02.206Z,71.55
2023-04-26T21:46:30.212Z,71.58
2023-04-26T21:48:58.248Z,70.99
2023-04-26T21:51:25.973Z,71.86
2023-04-26T21:53:53.782Z,72.36
2023-04-26T21:56:21.785Z,71.99
2023-04-26T21:58:49.535Z,72.26
2023-04-26T22:01:17.511Z,72.87
2023-04-26T22:03:45.599Z,72.52
2023-04-26T22:06:13.465Z,72.45
2023-04-26T22:08:41.379Z,72.34
2023-04-26T22:11:09.229Z,72.11
2023-04-26T22:13:37.024Z,71.42
2023-04-26T22:16:05.156Z,72.39
2023-04-26T22:18:33.004Z,72.41
2023-04-26T22:21:01.052Z,72.32
2023-04-26T22:23:28.886Z,72.54
2023-04-26T22:25:58.192Z,72.86
2023-04-26T22:28:26.771Z,73.24
2023-04-26T22:30:54.559Z,73.56
2023-04-26T22:33:22.389Z,73.05
2023-04-26T22:35:50.187Z,72.88
2023-04-26T22:38:18.025Z,73.18
2023-04-26T22:40:45.818Z,72.96
2023-04-26T22:43:13.514Z,72.99
2023-04-26T22:45:41.354Z,73.03
2023-04-26T22:48:09.148Z,73.37
2023-04-26T22:50:36.961Z,73.55
2023-04-26T22:53:04.763Z,74.27
2023-04-26T22:55:32.607Z,74.61
2023-04-26T22:58:00.504Z,74.43
2023-04-26T23:00:28.299Z,73.62
2023-04-26T23:02:56.191Z,74.09
2023-04-26T23:05:24.093Z,74.11
2023-04-26T23:07:52.453Z,73.79
2023-04-26T23:10:20.473Z,74.71
2023-04-26T23:12:50.116Z,74.76
2023-04-26T23:15:18.674Z,74.78
2023-04-26T23:17:47.067Z,74.63
2023-04-26T23:20:15.925Z,74.04
2023-04-26T23:22:44.033Z,74.74
2023-04-26T23:25:11.899Z,74.09
2023-04-26T23:27:39.916Z,74.29
2023-04-26T23:30:08.389Z,74.97
2023-04-26T23:32:36.873Z,74.34
2023-04-26T23:35:05.571Z,74.92
2023-04-26T23:37:33.412Z,74.91
2023-04-26T23:40:01.489Z,75.00
2023-04-26T23:42:29.346Z,74.02
2023-04-26T23:44:57.059Z,74.97
2023-04-26T23:47:25.510Z,74.27
2023-04-26T23:49:53.435Z,75.35
2023-04-26T23:52:21.272Z,74.85
2023-04-26T23:54:49.098Z,75.12
2023-04-26T23:57:16.993Z,75.65
2023-04-26T23:59:44.796Z,75.56
